createdAt,value
2023-03-11T00:00:33.659Z,99491.38
2023-03-11T00:03:01.972Z,99491.72
2023-03-11T00:05:31.871Z,99501.03
2023-03-11T00:07:58.399Z,99499.16
2023-03-11T00:10:30.123Z,99502.19
2023-03-11T00:12:57.665Z,99505.66
2023-03-11T00:15:24.750Z,99517.97
2023-03-11T00:17:51.978Z,99527.28
2023-03-11T00:20:29.440Z,99541.91
2023-03-11T00:22:57.025Z,99549.22
2023-03-11T00:25:26.007Z,99550.72
2023-03-11T00:27:52.469Z,99558.50
2023-03-11T00:30:20.185Z,99561.50
2023-03-11T00:32:52.163Z,99567.19
2023-03-11T00:35:21.547Z,99579.41
2023-03-11T00:37:48.450Z,99586.63
2023-03-11T00:40:19.239Z,99586.59
2023-03-11T00:42:46.282Z,99601.47
2023-03-11T00:45:13.682Z,99588.22
2023-03-11T00:47:40.238Z,99598.53
2023-03-11T00:50:09.760Z,99611.56
2023-03-11T00:52:36.273Z,99612.69
2023-03-11T00:55:02.972Z,99626.06
2023-03-11T00:57:30.373Z,99618.75
2023-03-11T00:59:56.852Z,99627.91
2023-03-11T01:02:24.536Z,99631.78
2023-03-11T01:04:58.137Z,99631.41
2023-03-11T01:07:24.687Z,99638.59
2023-03-11T01:09:51.117Z,99638.59
2023-03-11T01:12:17.572Z,99634.56
2023-03-11T01:14:44.083Z,99637.66
2023-03-11T01:17:10.557Z,99638.94
2023-03-11T01:19:37.008Z,99655.94
2023-03-11T01:22:03.800Z,99652.31
2023-03-11T01:24:30.334Z,99665.78
2023-03-11T01:26:56.986Z,99672.31
2023-03-11T01:29:24.539Z,99671.13
2023-03-11T01:31:50.980Z,99673.31
2023-03-11T01:34:17.509Z,99671.84
2023-03-11T01:36:43.942Z,99670.78
2023-03-11T01:39:10.449Z,99682.66
2023-03-11T01:41:37.022Z,99697.59
2023-03-11T01:44:04.916Z,99688.78
2023-03-11T01:46:59.621Z,99689.69
2023-03-11T01:49:30.468Z,99692.50
2023-03-11T01:52:03.709Z,99704.81
2023-03-11T01:54:41.371Z,99714.25
2023-03-11T01:57:13.280Z,99720.38
2023-03-11T01:59:46.932Z,99718.88
2023-03-11T02:02:23.017Z,99713.53
2023-03-11T02:04:50.790Z,99722.47
2023-03-11T02:07:18.034Z,99721.66
2023-03-11T02:09:45.997Z,99736.59
2023-03-11T02:12:14.711Z,99727.19
2023-03-11T02:14:48.095Z,99728.16
2023-03-11T02:17:15.122Z,99740.06
2023-03-11T02:20:08.764Z,99746.22
2023-03-11T02:22:35.996Z,99747.00
2023-03-11T02:25:23.036Z,99745.06
2023-03-11T02:27:53.290Z,99748.91
2023-03-11T02:30:23.902Z,99751.22
2023-03-11T02:32:51.187Z,99753.28
2023-03-11T02:35:18.556Z,99748.84
2023-03-11T02:37:50.431Z,99754.31
2023-03-11T02:40:23.000Z,99751.75
2023-03-11T02:42:55.141Z,99760.09
2023-03-11T02:45:25.739Z,99781.81
2023-03-11T02:47:56.752Z,99766.50
2023-03-11T02:50:25.432Z,99771.56
2023-03-11T02:52:52.115Z,99777.66
2023-03-11T02:55:20.313Z,99783.59
2023-03-11T02:57:49.944Z,99784.50
2023-03-11T03:00:18.353Z,99791.81
2023-03-11T03:02:54.992Z,99800.50
2023-03-11T03:05:22.343Z,99810.34
2023-03-11T03:07:50.854Z,99815.16
2023-03-11T03:10:22.342Z,99807.66
2023-03-11T03:12:49.339Z,99813.09
2023-03-11T03:15:16.400Z,99815.84
2023-03-11T03:17:44.681Z,99814.59
2023-03-11T03:20:12.963Z,99823.91
2023-03-11T03:22:43.314Z,99822.31
2023-03-11T03:25:12.258Z,99833.41
2023-03-11T03:27:39.249Z,99841.00
2023-03-11T03:30:09.477Z,99851.97
2023-03-11T03:32:37.171Z,99851.53
2023-03-11T03:35:06.028Z,99858.03
2023-03-11T03:37:51.699Z,99866.41
2023-03-11T03:40:18.478Z,99870.66
2023-03-11T03:42:44.987Z,99875.84
2023-03-11T03:45:11.978Z,99881.59
2023-03-11T03:47:38.636Z,99880.59
2023-03-11T03:50:08.673Z,99884.00
2023-03-11T03:52:37.302Z,99879.53
2023-03-11T03:55:05.583Z,99890.19
2023-03-11T03:57:32.421Z,99896.53
2023-03-11T03:59:58.881Z,99902.59
2023-03-11T04:02:26.031Z,99899.00
2023-03-11T04:04:53.833Z,99901.59
2023-03-11T04:07:20.349Z,99907.84
2023-03-11T04:09:47.046Z,99909.44
2023-03-11T04:12:17.400Z,99916.66
2023-03-11T04:14:44.742Z,99922.19
2023-03-11T04:17:12.669Z,99917.28
2023-03-11T04:19:40.250Z,99922.03
2023-03-11T04:22:07.676Z,99924.50
2023-03-11T04:24:34.242Z,99919.63
2023-03-11T04:27:01.326Z,99922.56
2023-03-11T04:29:28.101Z,99926.25
2023-03-11T04:31:55.539Z,99924.34
2023-03-11T04:34:22.346Z,99933.97
2023-03-11T04:36:53.122Z,99934.94
2023-03-11T04:39:21.999Z,99932.66
2023-03-11T04:41:48.684Z,99938.00
2023-03-11T04:44:19.526Z,99942.09
2023-03-11T04:46:46.332Z,99939.19
2023-03-11T04:49:12.804Z,99946.47
2023-03-11T04:51:40.404Z,99945.22
2023-03-11T04:54:07.759Z,99952.25
2023-03-11T04:56:34.464Z,99955.09
2023-03-11T04:59:01.427Z,99953.28
2023-03-11T05:01:29.970Z,99954.19
2023-03-11T05:03:58.504Z,99949.00
2023-03-11T05:06:25.236Z,99955.53
2023-03-11T05:08:52.042Z,99961.41
2023-03-11T05:11:18.813Z,99967.50
2023-03-11T05:13:47.392Z,99969.38
2023-03-11T05:16:14.298Z,99980.63
2023-03-11T05:18:40.973Z,99982.50
2023-03-11T05:21:07.416Z,99982.00
2023-03-11T05:23:36.414Z,99990.50
2023-03-11T05:26:03.142Z,99994.09
2023-03-11T05:28:31.474Z,100004.00
2023-03-11T05:30:58.268Z,100010.78
2023-03-11T05:33:25.249Z,100011.41
2023-03-11T05:35:53.445Z,100014.69
2023-03-11T05:38:20.634Z,100016.97
2023-03-11T05:40:47.546Z,100015.06
2023-03-11T05:43:14.104Z,100016.53
2023-03-11T05:45:43.521Z,100020.06
2023-03-11T05:48:10.673Z,100023.50
2023-03-11T05:50:38.030Z,100027.88
2023-03-11T05:53:04.946Z,100029.25
2023-03-11T05:55:31.931Z,100035.59
2023-03-11T05:57:59.397Z,100041.75
2023-03-11T06:00:29.245Z,100042.00
2023-03-11T06:02:58.269Z,100052.53
2023-03-11T06:05:24.783Z,100054.34
2023-03-11T06:07:53.202Z,100054.38
2023-03-11T06:10:21.814Z,100069.38
2023-03-11T06:12:48.318Z,100059.66
2023-03-11T06:15:24.723Z,100069.50
2023-03-11T06:17:52.594Z,100071.78
2023-03-11T06:20:19.800Z,100075.84
2023-03-11T06:22:49.725Z,100080.94
2023-03-11T06:25:16.896Z,100088.78
2023-03-11T06:27:48.604Z,100093.06
2023-03-11T06:30:15.474Z,100083.81
2023-03-11T06:32:50.212Z,100101.34
2023-03-11T06:35:16.704Z,100101.03
2023-03-11T06:37:43.238Z,100108.13
2023-03-11T06:40:11.304Z,100114.91
2023-03-11T06:42:38.130Z,100118.63
2023-03-11T06:45:07.542Z,100117.84
2023-03-11T06:47:34.348Z,100116.47
2023-03-11T06:50:06.361Z,100116.09
2023-03-11T06:52:33.622Z,100124.97
2023-03-11T06:55:00.204Z,100131.91
2023-03-11T06:57:29.360Z,100136.81
2023-03-11T06:59:57.405Z,100138.25
2023-03-11T07:02:24.636Z,100146.97
2023-03-11T07:04:51.201Z,100158.00
2023-03-11T07:07:20.145Z,100159.72
2023-03-11T07:09:46.850Z,100159.50
2023-03-11T07:12:14.936Z,100172.81
2023-03-11T07:14:41.725Z,100166.69
2023-03-11T07:17:08.225Z,100176.78
2023-03-11T07:19:41.061Z,100186.66
2023-03-11T07:22:07.484Z,100186.72
2023-03-11T07:24:33.876Z,100194.72
2023-03-11T07:27:00.352Z,100200.09
2023-03-11T07:29:27.071Z,100199.84
2023-03-11T07:31:53.552Z,100199.66
2023-03-11T07:34:20.172Z,100213.56
2023-03-11T07:36:46.625Z,100218.50
2023-03-11T07:39:16.565Z,100222.19
2023-03-11T07:41:43.216Z,100219.06
2023-03-11T07:44:12.216Z,100222.38
2023-03-11T07:46:38.931Z,100227.75
2023-03-11T07:49:05.598Z,100240.00
2023-03-11T07:51:35.226Z,100241.78
2023-03-11T07:54:02.178Z,100252.16
2023-03-11T07:56:32.065Z,100255.91
2023-03-11T07:59:00.198Z,100264.41
2023-03-11T08:01:30.497Z,100264.50
2023-03-11T08:03:58.734Z,100273.19
2023-03-11T08:06:31.286Z,100283.97
2023-03-11T08:08:59.252Z,100281.47
2023-03-11T08:11:26.285Z,100284.47
2023-03-11T08:13:53.872Z,100293.47
2023-03-11T08:16:22.460Z,100288.53
2023-03-11T08:18:51.085Z,100298.16
2023-03-11T08:21:23.435Z,100304.19
2023-03-11T08:23:50.610Z,100301.94
2023-03-11T08:26:20.388Z,100310.81
2023-03-11T08:28:46.948Z,100317.41
2023-03-11T08:31:19.267Z,100319.56
2023-03-11T08:33:49.844Z,100321.47
2023-03-11T08:36:17.386Z,100324.13
2023-03-11T08:38:43.839Z,100330.94
2023-03-11T08:41:10.431Z,100339.66
2023-03-11T08:43:36.880Z,100339.75
2023-03-11T08:46:07.148Z,100341.44
2023-03-11T08:48:34.263Z,100345.50
2023-03-11T08:51:00.741Z,100352.22
2023-03-11T08:53:27.366Z,100348.91
2023-03-11T08:55:53.858Z,100353.19
2023-03-11T08:58:20.532Z,100352.75
2023-03-11T09:00:47.178Z,100359.63
2023-03-11T09:03:13.695Z,100372.59
2023-03-11T09:05:40.461Z,100364.50
2023-03-11T09:08:07.158Z,100363.00
2023-03-11T09:10:33.698Z,100368.31
2023-03-11T09:13:00.321Z,100367.88
2023-03-11T09:15:29.293Z,100376.53
2023-03-11T09:17:56.801Z,100372.28
2023-03-11T09:20:23.456Z,100379.69
2023-03-11T09:22:50.159Z,100382.31
2023-03-11T09:25:16.791Z,100385.19
2023-03-11T09:27:43.251Z,100379.69
2023-03-11T09:30:10.647Z,100383.28
2023-03-11T09:32:37.333Z,100386.59
2023-03-11T09:35:04.464Z,100383.72
2023-03-11T09:37:31.036Z,100395.69
2023-03-11T09:39:57.520Z,100406.34
2023-03-11T09:42:35.772Z,100404.31
2023-03-11T09:45:08.281Z,100410.53
2023-03-11T09:47:45.923Z,100410.38
2023-03-11T09:50:20.252Z,100412.44
2023-03-11T09:53:08.786Z,100410.69
2023-03-11T09:55:42.203Z,100410.88
2023-03-11T09:58:36.597Z,100412.44
2023-03-11T10:01:12.017Z,100402.97
2023-03-11T10:03:40.048Z,100410.31
2023-03-11T10:06:14.734Z,100405.97
2023-03-11T10:09:13.509Z,100418.06
2023-03-11T10:12:10.727Z,100417.94
2023-03-11T10:15:05.989Z,100416.59
2023-03-11T10:17:56.162Z,100413.84
2023-03-11T10:20:30.056Z,100412.28
2023-03-11T10:23:11.076Z,100417.94
2023-03-11T10:25:52.451Z,100422.22
2023-03-11T10:28:22.193Z,100417.59
2023-03-11T10:30:56.323Z,100424.00
2023-03-11T10:33:39.992Z,100431.50
2023-03-11T10:36:12.553Z,100440.09
2023-03-11T10:38:49.171Z,100436.91
2023-03-11T10:41:21.216Z,100439.44
2023-03-11T10:44:13.669Z,100438.78
2023-03-11T10:46:40.108Z,100441.94
2023-03-11T10:49:17.892Z,100437.03
2023-03-11T10:51:47.193Z,100439.59
2023-03-11T10:54:35.328Z,100441.38
2023-03-11T10:57:04.709Z,100437.53
2023-03-11T10:59:46.145Z,100441.28
2023-03-11T11:02:33.693Z,100444.22
2023-03-11T11:05:18.168Z,100446.78
2023-03-11T11:07:53.040Z,100453.22
2023-03-11T11:10:25.574Z,100459.28
2023-03-11T11:12:57.859Z,100452.28
2023-03-11T11:15:38.014Z,100451.91
2023-03-11T11:18:14.699Z,100460.44
2023-03-11T11:21:15.993Z,100464.44
2023-03-11T11:23:52.594Z,100461.47
2023-03-11T11:26:23.040Z,100463.25
2023-03-11T11:29:12.291Z,100453.56
2023-03-11T11:31:41.171Z,100459.53
2023-03-11T11:34:29.269Z,100462.91
2023-03-11T11:37:02.336Z,100461.28
2023-03-11T11:39:32.934Z,100467.22
2023-03-11T11:42:01.493Z,100465.13
2023-03-11T11:44:33.761Z,100463.97
2023-03-11T11:47:18.975Z,100470.38
2023-03-11T11:49:55.338Z,100467.19
2023-03-11T11:52:30.650Z,100462.06
2023-03-11T11:55:04.999Z,100472.25
2023-03-11T11:57:32.227Z,100467.91
2023-03-11T11:59:58.760Z,100458.88
2023-03-11T12:02:41.840Z,100460.25
2023-03-11T12:05:11.245Z,100459.41
2023-03-11T12:07:49.196Z,100461.97
2023-03-11T12:10:28.585Z,100473.47
2023-03-11T12:13:14.403Z,100467.06
2023-03-11T12:15:46.928Z,100459.94
2023-03-11T12:18:20.537Z,100461.75
2023-03-11T12:20:55.072Z,100465.22
2023-03-11T12:23:50.192Z,100458.91
2023-03-11T12:26:21.295Z,100452.63
2023-03-11T12:28:56.585Z,100460.13
2023-03-11T12:31:26.698Z,100455.31
2023-03-11T12:34:03.109Z,100454.69
2023-03-11T12:36:35.021Z,100450.78
2023-03-11T12:39:07.234Z,100457.22
2023-03-11T12:41:39.912Z,100452.47
2023-03-11T12:44:28.766Z,100454.13
2023-03-11T12:46:58.423Z,100461.41
2023-03-11T12:49:32.747Z,100457.47
2023-03-11T12:52:11.495Z,100463.84
2023-03-11T12:55:08.083Z,100468.53
2023-03-11T12:57:48.159Z,100464.00
2023-03-11T13:00:22.825Z,100466.66
2023-03-11T13:02:58.648Z,100470.47
2023-03-11T13:06:08.413Z,100473.59
2023-03-11T13:08:44.645Z,100471.63
2023-03-11T13:11:29.856Z,100479.63
2023-03-11T13:14:14.820Z,100477.78
2023-03-11T13:16:42.822Z,100481.03
2023-03-11T13:19:27.839Z,100476.97
2023-03-11T13:21:55.650Z,100474.00
2023-03-11T13:24:22.065Z,100476.69
2023-03-11T13:26:48.442Z,100492.66
2023-03-11T13:29:52.612Z,100482.06
2023-03-11T13:32:32.005Z,100482.00
2023-03-11T13:35:17.974Z,100491.47
2023-03-11T13:38:13.192Z,100489.44
2023-03-11T13:40:42.524Z,100487.88
2023-03-11T13:43:19.892Z,100485.28
2023-03-11T13:45:53.142Z,100495.91
2023-03-11T13:48:28.898Z,100481.31
2023-03-11T13:51:30.673Z,100481.06
2023-03-11T13:54:02.503Z,100490.88
2023-03-11T13:56:33.005Z,100491.69
2023-03-11T13:59:17.379Z,100497.56
2023-03-11T14:01:51.842Z,100489.47
2023-03-11T14:04:34.356Z,100498.75
2023-03-11T14:07:11.889Z,100498.41
2023-03-11T14:09:38.797Z,100507.66
2023-03-11T14:12:10.038Z,100498.81
2023-03-11T14:14:53.211Z,100507.13
2023-03-11T14:17:20.984Z,100513.41
2023-03-11T14:20:11.778Z,100516.69
2023-03-11T14:22:38.279Z,100512.13
2023-03-11T14:25:09.042Z,100522.56
2023-03-11T14:27:38.485Z,100521.66
2023-03-11T14:30:06.728Z,100533.88
2023-03-11T14:32:34.720Z,100526.50
2023-03-11T14:35:03.949Z,100540.47
2023-03-11T14:37:38.374Z,100536.72
2023-03-11T14:40:28.162Z,100547.28
2023-03-11T14:42:58.915Z,100538.16
2023-03-11T14:45:29.846Z,100541.47
2023-03-11T14:48:03.364Z,100544.59
2023-03-11T14:50:33.583Z,100542.47
2023-03-11T14:53:12.371Z,100549.50
2023-03-11T14:55:43.907Z,100550.41
2023-03-11T14:58:18.565Z,100547.38
2023-03-11T15:00:59.603Z,100547.59
2023-03-11T15:03:32.164Z,100548.88
2023-03-11T15:06:15.329Z,100548.66
2023-03-11T15:08:48.352Z,100552.97
2023-03-11T15:11:15.041Z,100545.28
2023-03-11T15:13:44.080Z,100547.81
2023-03-11T15:16:37.501Z,100548.78
2023-03-11T15:19:26.075Z,100547.75
2023-03-11T15:21:54.483Z,100548.31
2023-03-11T15:24:32.036Z,100545.28
2023-03-11T15:27:04.718Z,100550.56
2023-03-11T15:29:33.756Z,100544.47
2023-03-11T15:32:00.681Z,100542.47
2023-03-11T15:34:32.046Z,100544.00
2023-03-11T15:37:19.240Z,100539.78
2023-03-11T15:39:51.080Z,100539.22
2023-03-11T15:42:20.587Z,100527.88
2023-03-11T15:45:15.653Z,100533.03
2023-03-11T15:47:42.793Z,100535.47
2023-03-11T15:50:24.189Z,100537.22
2023-03-11T15:52:56.906Z,100529.97
2023-03-11T15:55:25.382Z,100535.69
2023-03-11T15:58:00.771Z,100542.03
2023-03-11T16:00:27.276Z,100545.53
2023-03-11T16:02:54.612Z,100539.56
2023-03-11T16:05:23.725Z,100541.91
2023-03-11T16:07:50.935Z,100540.50
2023-03-11T16:10:21.129Z,100542.25
2023-03-11T16:12:48.178Z,100543.06
2023-03-11T16:15:28.917Z,100541.31
2023-03-11T16:17:59.047Z,100544.72
2023-03-11T16:20:29.202Z,100550.44
2023-03-11T16:22:58.672Z,100543.19
2023-03-11T16:25:36.135Z,100553.19
2023-03-11T16:28:03.253Z,100552.59
2023-03-11T16:30:31.507Z,100554.94
2023-03-11T16:32:58.634Z,100551.44
2023-03-11T16:35:25.670Z,100561.91
2023-03-11T16:37:52.538Z,100556.91
2023-03-11T16:40:21.729Z,100548.44
2023-03-11T16:42:49.085Z,100562.94
2023-03-11T16:45:18.090Z,100563.16
2023-03-11T16:47:44.567Z,100558.09
2023-03-11T16:50:11.613Z,100561.31
2023-03-11T16:52:38.468Z,100559.91
2023-03-11T16:55:05.553Z,100555.66
2023-03-11T16:57:32.148Z,100558.75
2023-03-11T16:59:58.882Z,100566.44
2023-03-11T17:02:25.608Z,100557.94
2023-03-11T17:04:52.135Z,100558.19
2023-03-11T17:07:18.670Z,100560.34
2023-03-11T17:09:45.309Z,100569.72
2023-03-11T17:12:15.570Z,100572.84
2023-03-11T17:14:42.364Z,100575.31
2023-03-11T17:17:09.223Z,100559.78
2023-03-11T17:19:35.809Z,100568.53
2023-03-11T17:22:05.108Z,100570.06
2023-03-11T17:24:32.401Z,100569.25
2023-03-11T17:26:58.940Z,100576.56
2023-03-11T17:29:25.583Z,100572.31
2023-03-11T17:31:52.091Z,100583.38
2023-03-11T17:34:18.578Z,100581.34
2023-03-11T17:36:45.085Z,100579.19
2023-03-11T17:39:11.548Z,100582.00
2023-03-11T17:41:38.065Z,100587.72
2023-03-11T17:44:04.939Z,100585.47
2023-03-11T17:46:32.053Z,100586.72
2023-03-11T17:48:59.379Z,100592.13
2023-03-11T17:51:26.725Z,100595.19
2023-03-11T17:53:55.416Z,100601.78
2023-03-11T17:56:22.777Z,100603.31
2023-03-11T17:58:50.475Z,100599.75
2023-03-11T18:01:20.616Z,100603.16
2023-03-11T18:03:47.348Z,100606.94
2023-03-11T18:06:14.980Z,100604.31
2023-03-11T18:08:41.858Z,100604.34
2023-03-11T18:11:13.653Z,100611.59
2023-03-11T18:13:40.889Z,100610.16
2023-03-11T18:16:10.977Z,100608.94
2023-03-11T18:18:37.817Z,100618.88
2023-03-11T18:21:06.254Z,100610.63
2023-03-11T18:23:34.079Z,100607.38
2023-03-11T18:26:03.349Z,100600.19
2023-03-11T18:28:30.045Z,100605.53
2023-03-11T18:31:05.550Z,100603.75
2023-03-11T18:33:32.107Z,100611.78
2023-03-11T18:35:58.792Z,100613.03
2023-03-11T18:38:25.490Z,100608.88
2023-03-11T18:40:58.189Z,100611.78
2023-03-11T18:43:25.418Z,100612.44
2023-03-11T18:45:51.948Z,100620.44
2023-03-11T18:48:18.434Z,100610.78
2023-03-11T18:50:51.486Z,100609.16
2023-03-11T18:53:18.149Z,100611.41
2023-03-11T18:55:44.581Z,100612.06
2023-03-11T18:58:11.220Z,100612.25
2023-03-11T19:00:37.737Z,100611.88
2023-03-11T19:03:04.209Z,100613.72
2023-03-11T19:05:30.771Z,100602.19
2023-03-11T19:07:57.323Z,100614.97
2023-03-11T19:10:23.752Z,100616.19
2023-03-11T19:12:50.761Z,100613.13
2023-03-11T19:15:17.802Z,100617.25
2023-03-11T19:17:46.634Z,100613.75
2023-03-11T19:20:19.124Z,100604.09
2023-03-11T19:22:45.578Z,100613.94
2023-03-11T19:25:12.048Z,100614.34
2023-03-11T19:27:40.140Z,100616.63
2023-03-11T19:30:09.758Z,100615.22
2023-03-11T19:32:36.255Z,100626.31
2023-03-11T19:35:02.728Z,100635.16
2023-03-11T19:37:30.981Z,100641.53
2023-03-11T19:39:58.038Z,100631.88
2023-03-11T19:42:25.980Z,100638.47
2023-03-11T19:44:54.252Z,100636.81
2023-03-11T19:47:20.698Z,100641.53
2023-03-11T19:49:47.190Z,100639.50
2023-03-11T19:52:13.733Z,100642.97
2023-03-11T19:54:40.175Z,100639.91
2023-03-11T19:57:06.641Z,100649.78
2023-03-11T19:59:34.545Z,100644.44
2023-03-11T20:02:01.706Z,100655.34
2023-03-11T20:04:28.986Z,100651.00
2023-03-11T20:06:55.997Z,100654.47
2023-03-11T20:09:22.644Z,100639.06
2023-03-11T20:11:49.075Z,100645.25
2023-03-11T20:14:15.614Z,100644.22
2023-03-11T20:16:42.190Z,100635.81
2023-03-11T20:19:08.833Z,100633.34
2023-03-11T20:21:39.262Z,100633.34
2023-03-11T20:24:06.680Z,100635.81
2023-03-11T20:26:33.383Z,100640.53
2023-03-11T20:29:00.193Z,100641.38
2023-03-11T20:31:28.303Z,100639.09
2023-03-11T20:33:56.057Z,100643.00
2023-03-11T20:36:25.748Z,100649.38
2023-03-11T20:38:53.753Z,100648.94
2023-03-11T20:41:23.157Z,100655.34
2023-03-11T20:43:54.978Z,100653.88
2023-03-11T20:46:21.972Z,100653.50
2023-03-11T20:48:48.531Z,100656.38
2023-03-11T20:51:19.469Z,100656.38
2023-03-11T20:53:47.203Z,100655.34
2023-03-11T20:56:16.760Z,100643.41
2023-03-11T20:58:44.528Z,100653.50
2023-03-11T21:01:28.714Z,100656.97
2023-03-11T21:04:01.410Z,100661.31
2023-03-11T21:06:47.229Z,100658.44
2023-03-11T21:09:14.656Z,100649.41
2023-03-11T21:11:41.596Z,100654.28
2023-03-11T21:14:08.764Z,100654.09
2023-03-11T21:16:37.202Z,100653.88
2023-03-11T21:19:08.498Z,100656.34
2023-03-11T21:21:35.300Z,100664.38
2023-03-11T21:24:02.227Z,100659.22
2023-03-11T21:26:28.795Z,100661.50
2023-03-11T21:28:55.946Z,100665.19
2023-03-11T21:31:25.968Z,100670.56
2023-03-11T21:33:56.863Z,100668.28
2023-03-11T21:36:24.077Z,100667.03
2023-03-11T21:38:51.474Z,100662.75
2023-03-11T21:41:21.231Z,100666.22
2023-03-11T21:43:48.122Z,100678.97
2023-03-11T21:46:17.861Z,100670.31
2023-03-11T21:48:45.235Z,100666.22
2023-03-11T21:51:12.178Z,100671.13
2023-03-11T21:53:38.878Z,100668.66
2023-03-11T21:56:05.834Z,100668.47
2023-03-11T21:58:33.469Z,100674.63
2023-03-11T22:01:00.667Z,100685.72
2023-03-11T22:03:28.137Z,100681.22
2023-03-11T22:05:58.935Z,100678.75
2023-03-11T22:08:26.097Z,100678.56
2023-03-11T22:10:52.910Z,100677.75
2023-03-11T22:13:19.638Z,100680.22
2023-03-11T22:15:48.661Z,100679.59
2023-03-11T22:18:15.133Z,100681.25
2023-03-11T22:20:42.623Z,100679.59
2023-03-11T22:23:09.658Z,100685.56
2023-03-11T22:25:36.861Z,100680.22
2023-03-11T22:28:04.181Z,100683.50
2023-03-11T22:30:30.778Z,100687.00
2023-03-11T22:32:57.259Z,100680.59
2023-03-11T22:35:23.702Z,100677.31
2023-03-11T22:37:50.203Z,100682.06
2023-03-11T22:40:16.674Z,100682.44
2023-03-11T22:42:43.222Z,100678.75
2023-03-11T22:45:10.076Z,100683.63
2023-03-11T22:47:36.627Z,100682.25
2023-03-11T22:50:04.078Z,100686.34
2023-03-11T22:52:30.706Z,100684.28
2023-03-11T22:54:57.455Z,100685.94
2023-03-11T22:57:24.149Z,100686.13
2023-03-11T22:59:50.543Z,100682.25
2023-03-11T23:02:16.961Z,100684.50
2023-03-11T23:04:45.729Z,100689.66
2023-03-11T23:07:12.759Z,100693.75
2023-03-11T23:10:12.690Z,100686.78
2023-03-11T23:12:39.565Z,100689.47
2023-03-11T23:18:00.101Z,100685.13
2023-03-11T23:20:27.148Z,100685.94
2023-03-11T23:22:53.643Z,100688.41
2023-03-11T23:25:20.200Z,100685.94
2023-03-11T23:27:46.953Z,100690.47
2023-03-11T23:30:16.246Z,100693.53
2023-03-11T23:32:43.825Z,100692.28
2023-03-11T23:35:11.323Z,100695.59
2023-03-11T23:37:38.476Z,100703.38
2023-03-11T23:40:07.107Z,100696.81
2023-03-11T23:42:35.140Z,100699.44
2023-03-11T23:45:01.886Z,100700.28
2023-03-11T23:47:28.712Z,100701.47
2023-03-11T23:49:55.171Z,100705.97
2023-03-11T23:52:21.739Z,100707.41
2023-03-11T23:54:48.236Z,100709.69
2023-03-11T23:57:14.682Z,100701.06
2023-03-11T23:59:41.130Z,100701.09
